地図

経路データ

SID SEASON NUMBER BASIN SUBBASIN NAME ISO_TIME NATURE LAT LON WMO_WIND WMO_PRES WMO_AGENCY TRACK_TYPE DIST2LAND LANDFALL IFLAG USA_AGENCY USA_ATCF_ID USA_LAT USA_LON USA_RECORD USA_STATUS USA_WIND USA_PRES USA_SSHS USA_R34_NE USA_R34_SE USA_R34_SW USA_R34_NW USA_R50_NE USA_R50_SE USA_R50_SW USA_R50_NW USA_R64_NE USA_R64_SE USA_R64_SW USA_R64_NW USA_POCI USA_ROCI USA_RMW USA_EYE TOKYO_LAT TOKYO_LON TOKYO_GRADE TOKYO_WIND TOKYO_PRES TOKYO_R50_DIR TOKYO_R50_LONG TOKYO_R50_SHORT TOKYO_R30_DIR TOKYO_R30_LONG TOKYO_R30_SHORT TOKYO_LAND CMA_LAT CMA_LON CMA_CAT CMA_WIND CMA_PRES HKO_LAT HKO_LON HKO_CAT HKO_WIND HKO_PRES NEWDELHI_LAT NEWDELHI_LON NEWDELHI_GRADE NEWDELHI_WIND NEWDELHI_PRES NEWDELHI_CI NEWDELHI_DP NEWDELHI_POCI REUNION_LAT REUNION_LON REUNION_TYPE REUNION_WIND REUNION_PRES REUNION_TNUM REUNION_CI REUNION_RMW REUNION_R34_NE REUNION_R34_SE REUNION_R34_SW REUNION_R34_NW REUNION_R50_NE REUNION_R50_SE REUNION_R50_SW REUNION_R50_NW REUNION_R64_NE REUNION_R64_SE REUNION_R64_SW REUNION_R64_NW BOM_LAT BOM_LON BOM_TYPE BOM_WIND BOM_PRES BOM_TNUM BOM_CI BOM_RMW BOM_R34_NE BOM_R34_SE BOM_R34_SW BOM_R34_NW BOM_R50_NE BOM_R50_SE BOM_R50_SW BOM_R50_NW BOM_R64_NE BOM_R64_SE BOM_R64_SW BOM_R64_NW BOM_ROCI BOM_POCI BOM_EYE BOM_POS_METHOD BOM_PRES_METHOD NADI_LAT NADI_LON NADI_CAT NADI_WIND NADI_PRES WELLINGTON_LAT WELLINGTON_LON WELLINGTON_WIND WELLINGTON_PRES DS824_LAT DS824_LON DS824_STAGE DS824_WIND DS824_PRES TD9636_LAT TD9636_LON TD9636_STAGE TD9636_WIND TD9636_PRES TD9635_LAT TD9635_LON TD9635_WIND TD9635_PRES TD9635_ROCI NEUMANN_LAT NEUMANN_LON NEUMANN_CLASS NEUMANN_WIND NEUMANN_PRES MLC_LAT MLC_LON MLC_CLASS MLC_WIND MLC_PRES USA_GUST BOM_GUST BOM_GUST_PER REUNION_GUST REUNION_GUST_PER USA_SEAHGT USA_SEARAD_NE USA_SEARAD_SE USA_SEARAD_SW USA_SEARAD_NW STORM_SPEED STORM_DIR
1934055S16078 1934 14 SI MM NOT_NAMED 1934-02-24 06:00:00 NR -15.5000 77.5000 reunion main 2151 2127 _____O________ -1 -15.5000 77.5000 99 9.90000 5 257
1934055S16078 1934 14 SI MM NOT_NAMED 1934-02-24 09:00:00 NR -15.5545 77.2474 main 2117 2096 _____P________ -1 -15.5545 77.2474 99 5 257
1934055S16078 1934 14 SI MM NOT_NAMED 1934-02-24 12:00:00 NR -15.6108 76.9902 main 2096 2062 _____P________ -1 -15.6108 76.9902 99 5 257
1934055S16078 1934 14 SI MM NOT_NAMED 1934-02-24 15:00:00 NR -15.6710 76.7239 main 2062 2052 _____P________ -1 -15.6710 76.7239 99 4 253
1934055S16078 1934 14 SI MM NOT_NAMED 1934-02-24 18:00:00 NR -15.7297 76.5954 main 2052 2028 _____P____O___ -1 -15.7371 76.4442 99 -15.7000 77.2000 4 4 248
1934055S16078 1934 14 SI MM NOT_NAMED 1934-02-24 21:00:00 NR -15.8164 76.3525 main 2028 1984 _____P____P___ -1 -15.8110 76.1465 99 -15.8271 76.7645 4 7 250
1934055S16078 1934 14 SI MM NOT_NAMED 1934-02-25 00:00:00 TS -15.9548 75.9592 main 1981 1926 _____P___OP___ -1 -15.8949 75.8263 99 -16.2000 75.4000 TC 65 -15.9530 76.3229 4 8 251
1934055S16078 1934 14 SI MM NOT_NAMED 1934-02-25 03:00:00 TS -16.0853 75.5196 main 1926 1872 _____P___PP___ -1 -15.9906 75.4790 99 -16.2902 74.9000 TC 65 -16.0775 75.8699 4 9 254
1934055S16078 1934 14 SI MM NOT_NAMED 1934-02-25 06:00:00 TS -16.2182 75.0182 reunion main 1872 1814 _____O___OO___ -1 -16.1000 75.1000 99 9.90000 -16.4000 74.4000 TC 65 -16.2000 75.4000 4 10 254
1934055S16078 1934 14 SI MM NOT_NAMED 1934-02-25 09:00:00 TS -16.3625 74.4988 main 1814 1760 _____P___PP___ -1 -16.2243 74.6863 99 -16.5424 73.9000 TC 65 -16.3208 74.9101 4 10 254
1934055S16078 1934 14 SI MM NOT_NAMED 1934-02-25 12:00:00 TS -16.5013 74.0162 main 1760 1706 _____P___OP___ -1 -16.3614 74.2413 99 -16.7000 73.4000 TC 65 -16.4423 74.4072 4 10 253
1934055S16078 1934 14 SI MM NOT_NAMED 1934-02-25 15:00:00 TS -16.6421 73.5211 main 1706 1659 _____P___PP___ -1 -16.5086 73.7701 99 -16.8499 72.8924 TC 65 -16.5677 73.9007 4 10 253
1934055S16078 1934 14 SI MM NOT_NAMED 1934-02-25 18:00:00 TS -16.7877 73.0259 main 1648 1604 _____P___OO___ -1 -16.6630 73.2778 99 -17.0000 72.4000 TC 65 -16.7000 73.4000 4 10 253
1934055S16078 1934 14 SI MM NOT_NAMED 1934-02-25 21:00:00 TS -16.9341 72.5521 main 1604 1547 _____P___PP___ -1 -16.8220 72.7694 99 -17.1422 71.9573 TC 65 -16.8381 72.9297 4 10 252
1934055S16078 1934 14 SI MM NOT_NAMED 1934-02-26 00:00:00 TS -17.0890 72.0716 main 1547 1490 _____P___OP___ -1 -16.9829 72.2503 99 -17.3000 71.5000 TC 65 -16.9841 72.4645 4 10 251
1934055S16078 1934 14 SI MM NOT_NAMED 1934-02-26 03:00:00 TS -17.2604 71.5608 main 1490 1436 _____P___PP___ -1 -17.1431 71.7254 99 -17.5000 70.9650 TC 65 -17.1381 71.9921 4 11 251
1934055S16078 1934 14 SI MM NOT_NAMED 1934-02-26 06:00:00 TS -17.4333 71.0333 reunion main 1426 1368 _____O___OO___ -1 -17.3000 71.2000 99 9.90000 -17.7000 70.4000 TC 65 -17.3000 71.5000 4 11 252
1934055S16078 1934 14 SI MM NOT_NAMED 1934-02-26 09:00:00 TS -17.5896 70.4968 main 1368 1314 _____P___PP___ -1 -17.4395 70.6962 99 -17.8575 69.8349 TC 65 -17.4719 70.9594 4 11 253
1934055S16078 1934 14 SI MM NOT_NAMED 1934-02-26 12:00:00 TS -17.7423 69.9628 main 1314 1258 _____P___OP___ -1 -17.5769 70.1882 99 -18.0000 69.3000 TC 65 -17.6501 70.4001 4 10 253
1934055S16078 1934 14 SI MM NOT_NAMED 1934-02-26 15:00:00 TS -17.8969 69.4533 main 1258 1203 _____P___PP___ -1 -17.7129 69.6770 99 -18.1497 68.8424 TC 65 -17.8282 69.8407 4 10 252
1934055S16078 1934 14 SI MM NOT_NAMED 1934-02-26 18:00:00 TS -18.0494 68.9544 main 1203 1147 _____P___OO___ -1 -17.8483 69.1633 99 -18.3000 68.4000 TC 65 -18.0000 69.3000 4 10 252
1934055S16078 1934 14 SI MM NOT_NAMED 1934-02-26 21:00:00 TS -18.1953 68.4645 main 1147 1093 _____P___PP___ -1 -17.9840 68.6479 99 -18.4498 67.9224 TC 65 -18.1521 68.8231 4 10 253
1934055S16078 1934 14 SI MM NOT_NAMED 1934-02-27 00:00:00 TS -18.3397 67.9653 main 1093 1036 _____P___OP___ -1 -18.1206 68.1317 99 -18.6000 67.4000 TC 65 -18.2986 68.3641 4 10 254
1934055S16078 1934 14 SI MM NOT_NAMED 1934-02-27 03:00:00 TS -18.4824 67.4428 main 1026 972 _____P___PP___ -1 -18.2590 67.6155 99 -18.7424 66.8148 TC 65 -18.4458 67.8980 4 11 254
1934055S16078 1934 14 SI MM NOT_NAMED 1934-02-27 06:00:00 TS -18.6333 66.9000 reunion main 972 916 _____O___OO___ -1 -18.4000 67.1000 99 9.90000 -18.9000 66.2000 TC 65 -18.6000 67.4000 4 11 253
1934055S16078 1934 14 SI MM NOT_NAMED 1934-02-27 09:00:00 TS -18.7930 66.3400 main 906 852 _____P___PP___ -1 -18.5111 66.6038 99 -19.0999 65.5925 TC 65 -18.7680 66.8238 4 11 253
1934055S16078 1934 14 SI MM NOT_NAMED 1934-02-27 12:00:00 TS -18.9545 65.7750 main 850 786 _____P___OP___ -1 -18.6206 66.1101 99 -19.3000 65.0000 TC 65 -18.9428 66.2150 4 11 254
1934055S16078 1934 14 SI MM NOT_NAMED 1934-02-27 15:00:00 TS -19.1020 65.2163 main 786 732 _____P___PP___ -1 -18.7349 65.6154 99 -19.4498 64.4348 TC 65 -19.1211 65.5987 4 11 254
1934055S16078 1934 14 SI MM NOT_NAMED 1934-02-27 18:00:00 TS -19.2535 64.6721 main 730 676 _____P___OO___ -1 -18.8604 65.1162 99 -19.6000 63.9000 TC 65 -19.3000 65.0000 4 10 252
1934055S16078 1934 14 SI MM NOT_NAMED 1934-02-27 21:00:00 TS -19.4164 64.1745 main 676 621 _____P___PP___ -1 -19.0033 64.6089 99 -19.7844 63.4297 TC 65 -19.4613 64.4848 4 10 250
1934055S16078 1934 14 SI MM NOT_NAMED 1934-02-28 00:00:00 TS -19.5985 63.6585 main 621 556 _____P___OP___ -1 -19.1701 64.0897 99 -20.0000 62.9000 TC 65 -19.6253 63.9858 4 11 250
1934055S16078 1934 14 SI MM NOT_NAMED 1934-02-28 03:00:00 TS -19.8038 63.0679 main 556 491 _____P___PP___ -1 -19.3669 63.5547 99 -20.2427 62.1800 TC 65 -19.8018 63.4690 4 12 249
1934055S16078 1934 14 SI MM NOT_NAMED 1934-02-28 06:00:00 TS -20.0333 62.4333 reunion main 481 417 _____O___OO___ -1 -19.6000 63.0000 99 9.90000 -20.5000 61.4000 TC 65 -20.0000 62.9000 4 13 248
1934055S16078 1934 14 SI MM NOT_NAMED 1934-02-28 09:00:00 TS -20.2956 61.7578 main 417 345 _____P___PP___ -1 -19.9627 62.3929 99 -20.7273 60.6770 TC 65 -20.1969 62.2035 4 14 246
1934055S16078 1934 14 SI MM NOT_NAMED 1934-02-28 12:00:00 TS -20.5967 61.0727 main 345 278 _____P___OP___ -1 -20.3711 61.7614 99 -21.0000 60.0000 TC 65 -20.4189 61.4566 4 14 243
1934055S16078 1934 14 SI MM NOT_NAMED 1934-02-28 15:00:00 TS -20.9486 60.3963 main 278 235 _____P___PP___ -1 -20.8021 61.1126 99 -21.3623 59.3698 TC 65 -20.6813 60.7063 4 14 239
1934055S16078 1934 14 SI MM NOT_NAMED 1934-02-28 18:00:00 TS -21.3443 59.7515 main 235 205 _____P___OO___ -1 -21.2330 60.4544 99 -21.8000 58.8000 TC 65 -21.0000 60.0000 4 14 234
1934055S16078 1934 14 SI MM NOT_NAMED 1934-02-28 21:00:00 TS -21.7853 59.1470 main 205 202 _____P___PP___ -1 -21.6408 59.7950 99 -22.3073 58.2701 TC 65 -21.4078 59.3760 4 14 231
1934055S16078 1934 14 SI MM NOT_NAMED 1934-03-01 00:00:00 TS -22.2239 58.5822 main 211 211 _____P___OP___ -1 -22.0029 59.1432 99 -22.8000 57.8000 TC 65 -21.8689 58.8034 4 13 231
1934055S16078 1934 14 SI MM NOT_NAMED 1934-03-01 03:00:00 TS -22.6049 58.0573 main 238 236 _____P___PP___ -1 -22.2967 58.5083 99 -23.1723 57.3845 TC 65 -22.3456 58.2790 4 12 233
1934055S16078 1934 14 SI MM NOT_NAMED 1934-03-01 06:00:00 TS -22.9333 57.5667 reunion main 257 241 _____O___OO___ -1 -22.5000 57.9000 99 9.90000 -23.5000 57.0000 TC 65 -22.8000 57.8000 4 10 239
1934055S16078 1934 14 SI MM NOT_NAMED 1934-03-01 09:00:00 TS -23.1360 57.0914 main 241 236 _____P___PP___ -1 -22.4079 57.2849 99 -23.8348 56.6145 TC 65 -23.1652 57.3748 4 9 247
1934055S16078 1934 14 SI MM NOT_NAMED 1934-03-01 12:00:00 TS -23.3065 56.6265 main 235 231 _____P___OP___ -1 -22.2138 56.6902 99 -24.2000 56.2000 TC 65 -23.5057 56.9892 4 9 248
1934055S16078 1934 14 SI MM NOT_NAMED 1934-03-01 15:00:00 TS -23.4820 56.1521 main 242 234 _____P___PP___ -1 -21.9604 56.1247 99 -24.6424 55.7225 TC 65 -23.8434 56.6092 4 9 255
1934055S16078 1934 14 SI MM NOT_NAMED 1934-03-01 18:00:00 TS -23.5328 55.7079 main 234 234 _____P___OO___ -1 -21.6903 55.5966 99 -25.1000 55.2000 TC 65 -24.2000 56.2000 4 8 267
1934055S16078 1934 14 SI MM NOT_NAMED 1934-03-01 21:00:00 TS -23.5183 55.2704 main 236 224 _____P___PP___ -1 -21.4464 55.1134 99 -25.5154 54.6555 TC 65 -24.5916 55.7348 4 9 289
1934055S16078 1934 14 SI MM NOT_NAMED 1934-03-02 00:00:00 TS -23.2530 54.8109 main 227 176 _____P___OP___ -1 -21.2715 54.6820 99 -25.9000 54.1000 TC 65 -25.0126 55.2198 4 12 319
1934055S16078 1934 14 SI MM NOT_NAMED 1934-03-02 03:00:00 NR -22.6230 54.4291 main 172 163 _____P____P___ -1 -21.2083 54.3088 99 TC -25.4523 54.6698 4 13 325
1934055S16078 1934 14 SI MM NOT_NAMED 1934-03-02 06:00:00 NR -22.2200 54.0200 reunion main 167 155 _____O____O___ -1 -21.3000 54.0000 99 9.90000 -25.9000 54.1000 4 12 329
1934055S16078 1934 14 SI MM NOT_NAMED 1934-03-02 09:00:00 NR -21.5782 53.7593 main 155 155 _____P________ -1 -21.5782 53.7593 99 4 5 295
1934055S16078 1934 14 SI MM NOT_NAMED 1934-03-02 12:00:00 NR -22.0299 53.5798 main 192 192 _____P________ -1 -22.0299 53.5798 99 4 11 195
1934055S16078 1934 14 SI MM NOT_NAMED 1934-03-02 15:00:00 NR -22.6307 53.4526 main 235 235 _____P________ -1 -22.6307 53.4526 99 4 13 188
1934055S16078 1934 14 SI MM NOT_NAMED 1934-03-02 18:00:00 NR -23.3559 53.3691 main 305 305 _____P________ -1 -23.3559 53.3691 99 16 184
1934055S16078 1934 14 SI MM NOT_NAMED 1934-03-02 21:00:00 NR -24.1807 53.3206 main 383 383 _____P________ -1 -24.1807 53.3206 99 17 182
1934055S16078 1934 14 SI MM NOT_NAMED 1934-03-03 00:00:00 NR -25.0799 53.2987 main 471 471 _____P________ -1 -25.0799 53.2987 99 19 0
1934055S16078 1934 14 SI MM NOT_NAMED 1934-03-03 03:00:00 NR -26.0281 53.2948 main 563 563 _____P________ -1 -26.0281 53.2948 99 19 0
1934055S16078 1934 14 SI MM NOT_NAMED 1934-03-03 06:00:00 NR -27.0000 53.3000 reunion main 658 _____O________ -1 -27.0000 53.3000 99 9.90000 20 0

IBTrACS Databaseについて

本データベースは、米国NOAAが公開する1842年以降の世界の熱帯低気圧のベストトラックデータアーカイブInternational Best Track Archive for Climate Stewardship (IBTrACS)を、ウェブで閲覧しやすい形式に変換したものです。

最終更新日:2021-10-21